sensor_id;sensor_type;location;lat;lon;timestamp;P1;durP1;ratioP1;P2;durP2;ratioP2
13279;SDS011;6708;49.814;8.652;2022-08-21T00:01:55;3.90;;;3.60;;
13279;SDS011;6708;49.814;8.652;2022-08-21T00:04:24;3.03;;;2.83;;
13279;SDS011;6708;49.814;8.652;2022-08-21T00:06:52;3.47;;;3.20;;
13279;SDS011;6708;49.814;8.652;2022-08-21T00:09:23;3.73;;;3.43;;
13279;SDS011;6708;49.814;8.652;2022-08-21T00:11:52;3.53;;;3.23;;
13279;SDS011;6708;49.814;8.652;2022-08-21T00:14:20;5.50;;;3.23;;
13279;SDS011;6708;49.814;8.652;2022-08-21T00:16:48;5.30;;;3.97;;
13279;SDS011;6708;49.814;8.652;2022-08-21T00:19:18;3.37;;;3.10;;
13279;SDS011;6708;49.814;8.652;2022-08-21T00:21:46;4.87;;;3.30;;
13279;SDS011;6708;49.814;8.652;2022-08-21T00:24:15;3.60;;;3.30;;
13279;SDS011;6708;49.814;8.652;2022-08-21T00:26:46;3.83;;;3.53;;
13279;SDS011;6708;49.814;8.652;2022-08-21T00:29:15;3.40;;;3.10;;
13279;SDS011;6708;49.814;8.652;2022-08-21T00:31:43;3.83;;;3.53;;
13279;SDS011;6708;49.814;8.652;2022-08-21T00:34:13;3.80;;;3.50;;
13279;SDS011;6708;49.814;8.652;2022-08-21T00:36:41;3.73;;;3.43;;
13279;SDS011;6708;49.814;8.652;2022-08-21T00:39:10;3.47;;;3.20;;
13279;SDS011;6708;49.814;8.652;2022-08-21T00:41:38;3.93;;;3.63;;
13279;SDS011;6708;49.814;8.652;2022-08-21T00:44:10;7.20;;;3.37;;
13279;SDS011;6708;49.814;8.652;2022-08-21T00:46:41;4.17;;;3.73;;
13279;SDS011;6708;49.814;8.652;2022-08-21T00:49:11;3.53;;;3.27;;
13279;SDS011;6708;49.814;8.652;2022-08-21T00:51:42;4.33;;;3.37;;
13279;SDS011;6708;49.814;8.652;2022-08-21T00:54:13;3.80;;;3.60;;
13279;SDS011;6708;49.814;8.652;2022-08-21T00:56:42;5.50;;;3.20;;
13279;SDS011;6708;49.814;8.652;2022-08-21T00:59:14;4.27;;;3.37;;
13279;SDS011;6708;49.814;8.652;2022-08-21T01:01:43;3.60;;;3.20;;
13279;SDS011;6708;49.814;8.652;2022-08-21T01:04:12;3.77;;;3.33;;
13279;SDS011;6708;49.814;8.652;2022-08-21T01:06:41;3.17;;;2.97;;
13279;SDS011;6708;49.814;8.652;2022-08-21T01:09:10;4.30;;;3.53;;
13279;SDS011;6708;49.814;8.652;2022-08-21T01:11:38;4.07;;;3.70;;
13279;SDS011;6708;49.814;8.652;2022-08-21T01:14:07;3.47;;;3.23;;
13279;SDS011;6708;49.814;8.652;2022-08-21T01:16:40;3.60;;;3.40;;
13279;SDS011;6708;49.814;8.652;2022-08-21T01:19:13;3.83;;;3.57;;
13279;SDS011;6708;49.814;8.652;2022-08-21T01:21:45;3.23;;;2.97;;
13279;SDS011;6708;49.814;8.652;2022-08-21T01:24:14;4.53;;;3.30;;
13279;SDS011;6708;49.814;8.652;2022-08-21T01:26:42;3.40;;;3.20;;
13279;SDS011;6708;49.814;8.652;2022-08-21T01:29:12;4.23;;;3.93;;
13279;SDS011;6708;49.814;8.652;2022-08-21T01:31:43;3.53;;;3.23;;
13279;SDS011;6708;49.814;8.652;2022-08-21T01:34:12;4.33;;;3.40;;
13279;SDS011;6708;49.814;8.652;2022-08-21T01:36:41;3.40;;;3.20;;
13279;SDS011;6708;49.814;8.652;2022-08-21T01:39:13;3.80;;;3.60;;
13279;SDS011;6708;49.814;8.652;2022-08-21T01:41:41;3.70;;;3.40;;
13279;SDS011;6708;49.814;8.652;2022-08-21T01:44:10;4.70;;;3.60;;
13279;SDS011;6708;49.814;8.652;2022-08-21T01:46:38;3.80;;;3.60;;
13279;SDS011;6708;49.814;8.652;2022-08-21T01:49:07;3.53;;;3.30;;
13279;SDS011;6708;49.814;8.652;2022-08-21T01:51:35;3.33;;;3.13;;
13279;SDS011;6708;49.814;8.652;2022-08-21T01:54:04;3.30;;;3.10;;
13279;SDS011;6708;49.814;8.652;2022-08-21T01:56:38;3.40;;;3.20;;
13279;SDS011;6708;49.814;8.652;2022-08-21T01:59:08;6.77;;;3.77;;
13279;SDS011;6708;49.814;8.652;2022-08-21T02:01:37;4.23;;;3.17;;
13279;SDS011;6708;49.814;8.652;2022-08-21T02:04:06;3.57;;;3.03;;
13279;SDS011;6708;49.814;8.652;2022-08-21T02:06:35;4.43;;;4.03;;
13279;SDS011;6708;49.814;8.652;2022-08-21T02:09:04;3.80;;;3.50;;
13279;SDS011;6708;49.814;8.652;2022-08-21T02:11:35;3.40;;;3.20;;
13279;SDS011;6708;49.814;8.652;2022-08-21T02:14:07;4.83;;;4.40;;
13279;SDS011;6708;49.814;8.652;2022-08-21T02:16:36;3.33;;;3.17;;
13279;SDS011;6708;49.814;8.652;2022-08-21T02:19:05;3.50;;;3.30;;
13279;SDS011;6708;49.814;8.652;2022-08-21T02:21:33;3.50;;;3.30;;
13279;SDS011;6708;49.814;8.652;2022-08-21T02:24:02;3.40;;;3.17;;
13279;SDS011;6708;49.814;8.652;2022-08-21T02:26:31;4.63;;;3.80;;
13279;SDS011;6708;49.814;8.652;2022-08-21T02:29:02;3.37;;;3.00;;
13279;SDS011;6708;49.814;8.652;2022-08-21T02:31:31;3.43;;;3.23;;
13279;SDS011;6708;49.814;8.652;2022-08-21T02:34:00;3.27;;;3.07;;
13279;SDS011;6708;49.814;8.652;2022-08-21T02:36:28;3.50;;;3.17;;
13279;SDS011;6708;49.814;8.652;2022-08-21T02:38:57;3.30;;;3.10;;
13279;SDS011;6708;49.814;8.652;2022-08-21T02:41:25;3.93;;;3.63;;
13279;SDS011;6708;49.814;8.652;2022-08-21T02:43:54;3.80;;;3.50;;
13279;SDS011;6708;49.814;8.652;2022-08-21T02:46:25;4.50;;;2.93;;
13279;SDS011;6708;49.814;8.652;2022-08-21T02:48:53;3.40;;;3.20;;
13279;SDS011;6708;49.814;8.652;2022-08-21T02:51:22;3.77;;;3.47;;
13279;SDS011;6708;49.814;8.652;2022-08-21T02:53:51;3.63;;;3.23;;
13279;SDS011;6708;49.814;8.652;2022-08-21T07:22:43;1.60;;;1.50;;
13279;SDS011;6708;49.814;8.652;2022-08-21T07:25:12;2.77;;;1.63;;
13279;SDS011;6708;49.814;8.652;2022-08-21T07:27:41;2.20;;;1.57;;
13279;SDS011;6708;49.814;8.652;2022-08-21T07:30:10;1.90;;;1.80;;
13279;SDS011;6708;49.814;8.652;2022-08-21T07:32:39;2.03;;;1.93;;
13279;SDS011;6708;49.814;8.652;2022-08-21T07:35:07;1.97;;;1.77;;
13279;SDS011;6708;49.814;8.652;2022-08-21T07:37:36;2.23;;;2.03;;
13279;SDS011;6708;49.814;8.652;2022-08-21T07:40:09;2.73;;;1.70;;
13279;SDS011;6708;49.814;8.652;2022-08-21T07:42:39;2.23;;;1.80;;
13279;SDS011;6708;49.814;8.652;2022-08-21T07:45:09;2.37;;;2.17;;
13279;SDS011;6708;49.814;8.652;2022-08-21T07:47:38;2.60;;;2.40;;
13279;SDS011;6708;49.814;8.652;2022-08-21T07:50:07;2.50;;;2.30;;
13279;SDS011;6708;49.814;8.652;2022-08-21T07:52:36;2.83;;;2.63;;
13279;SDS011;6708;49.814;8.652;2022-08-21T07:55:05;3.25;;;2.40;;
13279;SDS011;6708;49.814;8.652;2022-08-21T07:57:38;2.42;;;2.33;;
13279;SDS011;6708;49.814;8.652;2022-08-21T08:00:10;2.80;;;2.60;;
13279;SDS011;6708;49.814;8.652;2022-08-21T08:02:40;2.55;;;2.20;;
13279;SDS011;6708;49.814;8.652;2022-08-21T08:05:14;2.33;;;2.13;;
13279;SDS011;6708;49.814;8.652;2022-08-21T08:07:44;3.50;;;2.30;;
13279;SDS011;6708;49.814;8.652;2022-08-21T08:10:16;2.28;;;2.17;;
13279;SDS011;6708;49.814;8.652;2022-08-21T08:12:46;2.47;;;2.30;;
13279;SDS011;6708;49.814;8.652;2022-08-21T08:15:18;2.05;;;1.92;;
13279;SDS011;6708;49.814;8.652;2022-08-21T08:17:48;2.40;;;2.17;;
13279;SDS011;6708;49.814;8.652;2022-08-21T08:20:17;1.90;;;1.80;;
13279;SDS011;6708;49.814;8.652;2022-08-21T08:22:47;2.25;;;1.65;;
13279;SDS011;6708;49.814;8.652;2022-08-21T08:25:19;2.97;;;2.25;;
13279;SDS011;6708;49.814;8.652;2022-08-21T08:27:52;4.85;;;2.30;;
13279;SDS011;6708;49.814;8.652;2022-08-21T08:30:21;2.60;;;1.98;;
13279;SDS011;6708;49.814;8.652;2022-08-21T08:32:50;2.25;;;1.83;;
13279;SDS011;6708;49.814;8.652;2022-08-21T08:35:20;2.67;;;1.70;;
13279;SDS011;6708;49.814;8.652;2022-08-21T08:37:50;2.20;;;2.10;;
13279;SDS011;6708;49.814;8.652;2022-08-21T08:40:25;2.60;;;2.05;;
13279;SDS011;6708;49.814;8.652;2022-08-21T08:43:01;2.17;;;1.98;;
13279;SDS011;6708;49.814;8.652;2022-08-21T08:45:31;2.20;;;2.10;;
13279;SDS011;6708;49.814;8.652;2022-08-21T08:48:03;1.73;;;1.63;;
13279;SDS011;6708;49.814;8.652;2022-08-21T08:50:38;1.48;;;1.38;;
13279;SDS011;6708;49.814;8.652;2022-08-21T08:53:11;2.40;;;2.20;;
13279;SDS011;6708;49.814;8.652;2022-08-21T08:55:45;3.22;;;2.17;;
13279;SDS011;6708;49.814;8.652;2022-08-21T08:58:15;2.45;;;1.85;;
13279;SDS011;6708;49.814;8.652;2022-08-21T09:00:46;2.13;;;1.95;;
13279;SDS011;6708;49.814;8.652;2022-08-21T09:03:15;2.70;;;1.90;;
13279;SDS011;6708;49.814;8.652;2022-08-21T09:05:45;2.13;;;1.95;;
13279;SDS011;6708;49.814;8.652;2022-08-21T09:08:26;3.72;;;2.53;;
13279;SDS011;6708;49.814;8.652;2022-08-21T09:11:06;4.78;;;2.42;;
13279;SDS011;6708;49.814;8.652;2022-08-21T09:13:42;2.75;;;1.80;;
13279;SDS011;6708;49.814;8.652;2022-08-21T09:16:15;4.82;;;1.83;;
13279;SDS011;6708;49.814;8.652;2022-08-21T09:18:57;1.90;;;1.80;;
13279;SDS011;6708;49.814;8.652;2022-08-21T09:21:38;3.65;;;2.30;;
13279;SDS011;6708;49.814;8.652;2022-08-21T09:24:16;2.83;;;1.42;;
13279;SDS011;6708;49.814;8.652;2022-08-21T09:26:54;2.15;;;2.00;;
13279;SDS011;6708;49.814;8.652;2022-08-21T09:29:36;1.95;;;1.85;;
13279;SDS011;6708;49.814;8.652;2022-08-21T09:32:09;2.53;;;1.58;;
13279;SDS011;6708;49.814;8.652;2022-08-21T09:34:39;1.52;;;1.42;;
13279;SDS011;6708;49.814;8.652;2022-08-21T09:37:16;4.10;;;2.17;;
13279;SDS011;6708;49.814;8.652;2022-08-21T09:39:45;1.63;;;1.52;;
13279;SDS011;6708;49.814;8.652;2022-08-21T09:42:21;2.17;;;1.83;;
13279;SDS011;6708;49.814;8.652;2022-08-21T09:45:00;2.33;;;1.55;;
13279;SDS011;6708;49.814;8.652;2022-08-21T09:47:37;2.50;;;1.75;;
13279;SDS011;6708;49.814;8.652;2022-08-21T09:50:10;3.15;;;1.50;;
13279;SDS011;6708;49.814;8.652;2022-08-21T09:52:44;2.00;;;1.90;;
13279;SDS011;6708;49.814;8.652;2022-08-21T09:55:16;4.03;;;1.55;;
13279;SDS011;6708;49.814;8.652;2022-08-21T09:58:03;2.50;;;1.48;;
13279;SDS011;6708;49.814;8.652;2022-08-21T10:00:32;1.67;;;1.58;;
13279;SDS011;6708;49.814;8.652;2022-08-21T10:03:12;3.05;;;1.67;;
13279;SDS011;6708;49.814;8.652;2022-08-21T10:05:51;2.83;;;1.67;;
13279;SDS011;6708;49.814;8.652;2022-08-21T10:08:25;3.03;;;1.80;;
13279;SDS011;6708;49.814;8.652;2022-08-21T10:10:56;1.88;;;1.75;;
13279;SDS011;6708;49.814;8.652;2022-08-21T10:13:30;1.40;;;1.17;;
13279;SDS011;6708;49.814;8.652;2022-08-21T10:16:08;0.93;;;0.93;;
13279;SDS011;6708;49.814;8.652;2022-08-21T10:18:45;1.63;;;1.42;;
13279;SDS011;6708;49.814;8.652;2022-08-21T10:21:22;1.20;;;1.10;;
13279;SDS011;6708;49.814;8.652;2022-08-21T10:23:55;1.30;;;1.20;;
13279;SDS011;6708;49.814;8.652;2022-08-21T10:26:40;2.25;;;1.10;;
13279;SDS011;6708;49.814;8.652;2022-08-21T10:29:18;2.25;;;1.63;;
13279;SDS011;6708;49.814;8.652;2022-08-21T10:32:01;3.63;;;1.52;;
13279;SDS011;6708;49.814;8.652;2022-08-21T10:34:39;1.23;;;1.13;;
13279;SDS011;6708;49.814;8.652;2022-08-21T10:37:19;1.58;;;1.20;;
13279;SDS011;6708;49.814;8.652;2022-08-21T10:39:56;2.33;;;1.30;;
13279;SDS011;6708;49.814;8.652;2022-08-21T10:42:33;2.45;;;0.95;;
13279;SDS011;6708;49.814;8.652;2022-08-21T10:45:13;1.10;;;1.00;;
13279;SDS011;6708;49.814;8.652;2022-08-21T10:47:47;2.80;;;1.52;;
13279;SDS011;6708;49.814;8.652;2022-08-21T10:50:19;2.50;;;1.35;;
13279;SDS011;6708;49.814;8.652;2022-08-21T10:53:00;1.85;;;1.20;;
13279;SDS011;6708;49.814;8.652;2022-08-21T10:55:35;2.42;;;1.67;;
13279;SDS011;6708;49.814;8.652;2022-08-21T10:58:08;1.33;;;1.23;;
13279;SDS011;6708;49.814;8.652;2022-08-21T11:00:41;1.77;;;1.60;;
13279;SDS011;6708;49.814;8.652;2022-08-21T11:03:15;1.38;;;1.20;;
13279;SDS011;6708;49.814;8.652;2022-08-21T11:05:46;2.83;;;1.20;;
13279;SDS011;6708;49.814;8.652;2022-08-21T11:08:17;2.33;;;1.60;;
13279;SDS011;6708;49.814;8.652;2022-08-21T11:10:50;1.95;;;1.35;;
13279;SDS011;6708;49.814;8.652;2022-08-21T11:13:22;2.28;;;1.20;;
13279;SDS011;6708;49.814;8.652;2022-08-21T11:15:59;1.63;;;1.30;;
13279;SDS011;6708;49.814;8.652;2022-08-21T11:18:32;2.15;;;1.75;;
13279;SDS011;6708;49.814;8.652;2022-08-21T11:21:04;1.88;;;1.52;;
13279;SDS011;6708;49.814;8.652;2022-08-21T11:23:43;2.65;;;1.17;;
13279;SDS011;6708;49.814;8.652;2022-08-21T11:26:17;1.60;;;1.50;;
13279;SDS011;6708;49.814;8.652;2022-08-21T11:28:51;1.20;;;1.05;;
13279;SDS011;6708;49.814;8.652;2022-08-21T11:31:27;3.13;;;1.15;;
13279;SDS011;6708;49.814;8.652;2022-08-21T11:34:05;1.55;;;1.45;;
13279;SDS011;6708;49.814;8.652;2022-08-21T11:36:42;2.00;;;1.15;;
13279;SDS011;6708;49.814;8.652;2022-08-21T11:39:15;2.03;;;1.58;;
13279;SDS011;6708;49.814;8.652;2022-08-21T11:41:53;1.42;;;1.33;;
13279;SDS011;6708;49.814;8.652;2022-08-21T11:44:28;1.10;;;1.10;;
13279;SDS011;6708;49.814;8.652;2022-08-21T11:47:08;2.03;;;1.48;;
13279;SDS011;6708;49.814;8.652;2022-08-21T11:49:47;1.55;;;1.38;;
13279;SDS011;6708;49.814;8.652;2022-08-21T11:52:22;1.42;;;1.33;;
13279;SDS011;6708;49.814;8.652;2022-08-21T11:54:54;1.20;;;1.20;;
13279;SDS011;6708;49.814;8.652;2022-08-21T11:57:27;1.92;;;1.52;;
13279;SDS011;6708;49.814;8.652;2022-08-21T11:59:59;1.90;;;1.55;;
13279;SDS011;6708;49.814;8.652;2022-08-21T12:02:41;2.65;;;1.75;;
13279;SDS011;6708;49.814;8.652;2022-08-21T12:05:21;1.60;;;1.25;;
13279;SDS011;6708;49.814;8.652;2022-08-21T12:07:59;1.30;;;1.02;;
13279;SDS011;6708;49.814;8.652;2022-08-21T12:10:33;1.00;;;1.00;;
13279;SDS011;6708;49.814;8.652;2022-08-21T12:13:08;1.20;;;1.13;;
13279;SDS011;6708;49.814;8.652;2022-08-21T12:15:40;1.60;;;1.50;;
13279;SDS011;6708;49.814;8.652;2022-08-21T12:18:21;1.50;;;1.15;;
13279;SDS011;6708;49.814;8.652;2022-08-21T12:21:00;2.63;;;1.23;;
13279;SDS011;6708;49.814;8.652;2022-08-21T12:23:32;1.80;;;1.55;;
13279;SDS011;6708;49.814;8.652;2022-08-21T12:26:09;3.28;;;1.55;;
13279;SDS011;6708;49.814;8.652;2022-08-21T12:31:56;1.13;;;0.90;;
13279;SDS011;6708;49.814;8.652;2022-08-21T12:34:38;1.98;;;1.10;;
13279;SDS011;6708;49.814;8.652;2022-08-21T12:37:24;1.38;;;1.20;;
13279;SDS011;6708;49.814;8.652;2022-08-21T12:39:57;1.40;;;1.30;;
13279;SDS011;6708;49.814;8.652;2022-08-21T12:42:30;1.95;;;1.25;;
13279;SDS011;6708;49.814;8.652;2022-08-21T12:45:17;1.27;;;1.17;;
13279;SDS011;6708;49.814;8.652;2022-08-21T12:47:48;2.83;;;1.30;;
13279;SDS011;6708;49.814;8.652;2022-08-21T12:50:23;1.35;;;1.13;;
13279;SDS011;6708;49.814;8.652;2022-08-21T12:53:04;1.20;;;1.20;;
13279;SDS011;6708;49.814;8.652;2022-08-21T12:55:35;1.00;;;0.90;;
13279;SDS011;6708;49.814;8.652;2022-08-21T12:58:16;1.55;;;1.42;;
13279;SDS011;6708;49.814;8.652;2022-08-21T13:00:47;2.42;;;1.83;;
13279;SDS011;6708;49.814;8.652;2022-08-21T13:03:17;2.67;;;1.15;;
13279;SDS011;6708;49.814;8.652;2022-08-21T13:05:48;2.58;;;1.40;;
13279;SDS011;6708;49.814;8.652;2022-08-21T13:08:19;1.75;;;1.30;;
13279;SDS011;6708;49.814;8.652;2022-08-21T13:10:49;1.05;;;1.05;;
13279;SDS011;6708;49.814;8.652;2022-08-21T13:13:24;1.23;;;1.13;;
13279;SDS011;6708;49.814;8.652;2022-08-21T13:15:56;1.20;;;1.20;;
13279;SDS011;6708;49.814;8.652;2022-08-21T13:18:27;2.13;;;1.10;;
13279;SDS011;6708;49.814;8.652;2022-08-21T13:21:07;2.00;;;1.70;;
13279;SDS011;6708;49.814;8.652;2022-08-21T13:23:38;1.20;;;1.10;;
13279;SDS011;6708;49.814;8.652;2022-08-21T13:26:12;0.95;;;0.95;;
13279;SDS011;6708;49.814;8.652;2022-08-21T13:28:41;2.83;;;1.35;;
13279;SDS011;6708;49.814;8.652;2022-08-21T13:31:13;2.83;;;1.30;;
13279;SDS011;6708;49.814;8.652;2022-08-21T13:33:45;1.08;;;1.08;;
13279;SDS011;6708;49.814;8.652;2022-08-21T13:36:17;1.52;;;1.25;;
13279;SDS011;6708;49.814;8.652;2022-08-21T13:38:48;4.78;;;1.13;;
13279;SDS011;6708;49.814;8.652;2022-08-21T13:41:20;1.70;;;1.30;;
13279;SDS011;6708;49.814;8.652;2022-08-21T13:43:56;1.08;;;0.73;;
13279;SDS011;6708;49.814;8.652;2022-08-21T13:46:26;2.38;;;1.10;;
13279;SDS011;6708;49.814;8.652;2022-08-21T13:48:56;1.13;;;0.90;;
13279;SDS011;6708;49.814;8.652;2022-08-21T13:51:29;1.08;;;1.08;;
13279;SDS011;6708;49.814;8.652;2022-08-21T13:53:58;2.35;;;1.45;;
13279;SDS011;6708;49.814;8.652;2022-08-21T13:56:28;1.42;;;1.27;;
13279;SDS011;6708;49.814;8.652;2022-08-21T13:58:58;1.15;;;1.00;;
13279;SDS011;6708;49.814;8.652;2022-08-21T14:01:29;0.90;;;0.90;;
13279;SDS011;6708;49.814;8.652;2022-08-21T14:04:01;1.63;;;1.08;;
13279;SDS011;6708;49.814;8.652;2022-08-21T14:06:35;1.30;;;1.20;;
13279;SDS011;6708;49.814;8.652;2022-08-21T14:09:07;1.75;;;1.02;;
13279;SDS011;6708;49.814;8.652;2022-08-21T14:11:37;1.20;;;1.10;;
13279;SDS011;6708;49.814;8.652;2022-08-21T14:14:12;3.45;;;1.42;;
13279;SDS011;6708;49.814;8.652;2022-08-21T14:16:47;1.83;;;1.38;;
13279;SDS011;6708;49.814;8.652;2022-08-21T14:19:22;1.13;;;1.05;;
13279;SDS011;6708;49.814;8.652;2022-08-21T14:21:54;5.75;;;1.42;;
13279;SDS011;6708;49.814;8.652;2022-08-21T14:24:27;3.20;;;1.52;;
13279;SDS011;6708;49.814;8.652;2022-08-21T14:27:00;1.02;;;1.02;;
13279;SDS011;6708;49.814;8.652;2022-08-21T14:29:32;2.78;;;1.17;;
13279;SDS011;6708;49.814;8.652;2022-08-21T14:32:08;1.15;;;1.05;;
13279;SDS011;6708;49.814;8.652;2022-08-21T14:34:38;2.13;;;1.30;;
13279;SDS011;6708;49.814;8.652;2022-08-21T14:37:09;1.23;;;0.98;;
13279;SDS011;6708;49.814;8.652;2022-08-21T14:39:38;3.55;;;1.55;;
13279;SDS011;6708;49.814;8.652;2022-08-21T14:42:06;1.40;;;1.00;;
13279;SDS011;6708;49.814;8.652;2022-08-21T14:44:35;1.30;;;1.00;;
13279;SDS011;6708;49.814;8.652;2022-08-21T14:47:03;1.13;;;1.05;;
13279;SDS011;6708;49.814;8.652;2022-08-21T14:49:32;1.10;;;1.10;;
13279;SDS011;6708;49.814;8.652;2022-08-21T14:52:00;1.30;;;1.20;;
13279;SDS011;6708;49.814;8.652;2022-08-21T14:54:32;2.10;;;0.98;;
13279;SDS011;6708;49.814;8.652;2022-08-21T14:57:02;1.48;;;1.02;;
13279;SDS011;6708;49.814;8.652;2022-08-21T14:59:41;2.15;;;1.05;;
13279;SDS011;6708;49.814;8.652;2022-08-21T15:02:31;1.35;;;1.33;;
13279;SDS011;6708;49.814;8.652;2022-08-21T15:05:12;1.17;;;1.08;;
13279;SDS011;6708;49.814;8.652;2022-08-21T15:07:49;1.38;;;0.85;;
13279;SDS011;6708;49.814;8.652;2022-08-21T15:10:34;1.17;;;1.05;;
13279;SDS011;6708;49.814;8.652;2022-08-21T15:13:10;1.40;;;1.15;;
13279;SDS011;6708;49.814;8.652;2022-08-21T15:15:41;0.95;;;0.70;;
13279;SDS011;6708;49.814;8.652;2022-08-21T15:18:40;1.17;;;0.80;;
13279;SDS011;6708;49.814;8.652;2022-08-21T15:21:14;1.45;;;1.30;;
13279;SDS011;6708;49.814;8.652;2022-08-21T15:23:57;2.45;;;1.00;;
13279;SDS011;6708;49.814;8.652;2022-08-21T15:26:46;0.88;;;0.80;;
13279;SDS011;6708;49.814;8.652;2022-08-21T15:29:17;2.88;;;1.05;;
13279;SDS011;6708;49.814;8.652;2022-08-21T15:31:49;1.15;;;1.02;;
13279;SDS011;6708;49.814;8.652;2022-08-21T15:34:28;2.58;;;1.00;;
13279;SDS011;6708;49.814;8.652;2022-08-21T15:36:58;2.45;;;0.98;;
13279;SDS011;6708;49.814;8.652;2022-08-21T15:39:29;2.70;;;1.00;;
13279;SDS011;6708;49.814;8.652;2022-08-21T15:42:00;3.00;;;1.27;;
13279;SDS011;6708;49.814;8.652;2022-08-21T15:44:39;1.17;;;1.00;;
13279;SDS011;6708;49.814;8.652;2022-08-21T15:47:16;1.73;;;0.82;;
13279;SDS011;6708;49.814;8.652;2022-08-21T15:49:54;1.40;;;1.25;;
13279;SDS011;6708;49.814;8.652;2022-08-21T15:52:44;0.73;;;0.70;;
13279;SDS011;6708;49.814;8.652;2022-08-21T15:55:35;2.28;;;1.17;;
13279;SDS011;6708;49.814;8.652;2022-08-21T15:58:22;0.93;;;0.88;;
13279;SDS011;6708;49.814;8.652;2022-08-21T16:01:18;3.53;;;0.65;;
13279;SDS011;6708;49.814;8.652;2022-08-21T16:04:18;1.17;;;1.10;;
13279;SDS011;6708;49.814;8.652;2022-08-21T16:07:05;2.25;;;1.75;;
13279;SDS011;6708;49.814;8.652;2022-08-21T16:09:56;1.45;;;1.25;;
13279;SDS011;6708;49.814;8.652;2022-08-21T16:12:58;1.33;;;1.23;;
13279;SDS011;6708;49.814;8.652;2022-08-21T16:18:53;1.25;;;1.25;;
13279;SDS011;6708;49.814;8.652;2022-08-21T16:21:35;1.48;;;1.40;;
13279;SDS011;6708;49.814;8.652;2022-08-21T16:24:10;1.55;;;1.17;;
13279;SDS011;6708;49.814;8.652;2022-08-21T16:27:02;1.67;;;1.58;;
13279;SDS011;6708;49.814;8.652;2022-08-21T16:29:49;2.15;;;1.60;;
13279;SDS011;6708;49.814;8.652;2022-08-21T16:32:41;5.18;;;1.90;;
13279;SDS011;6708;49.814;8.652;2022-08-21T16:35:25;1.55;;;1.35;;
13279;SDS011;6708;49.814;8.652;2022-08-21T16:38:11;0.80;;;0.80;;
13279;SDS011;6708;49.814;8.652;2022-08-21T16:40:59;2.30;;;2.10;;
13279;SDS011;6708;49.814;8.652;2022-08-21T16:43:50;1.30;;;1.20;;
13279;SDS011;6708;49.814;8.652;2022-08-21T16:46:39;2.50;;;1.10;;
13279;SDS011;6708;49.814;8.652;2022-08-21T16:52:19;6.50;;;4.30;;
13279;SDS011;6708;49.814;8.652;2022-08-21T16:55:00;1.55;;;1.45;;
13279;SDS011;6708;49.814;8.652;2022-08-21T16:57:51;1.30;;;1.15;;
13279;SDS011;6708;49.814;8.652;2022-08-21T17:03:56;1.90;;;1.30;;
13279;SDS011;6708;49.814;8.652;2022-08-21T17:06:55;3.47;;;1.58;;
13279;SDS011;6708;49.814;8.652;2022-08-21T17:09:39;1.25;;;1.20;;
13279;SDS011;6708;49.814;8.652;2022-08-21T17:12:34;1.00;;;0.90;;
13279;SDS011;6708;49.814;8.652;2022-08-21T17:15:31;1.17;;;1.08;;
13279;SDS011;6708;49.814;8.652;2022-08-21T17:18:14;2.30;;;1.13;;
13279;SDS011;6708;49.814;8.652;2022-08-21T17:21:08;1.48;;;1.38;;
13279;SDS011;6708;49.814;8.652;2022-08-21T17:24:09;1.50;;;1.10;;
13279;SDS011;6708;49.814;8.652;2022-08-21T17:26:47;0.93;;;0.93;;
13279;SDS011;6708;49.814;8.652;2022-08-21T17:29:43;1.87;;;1.53;;
13279;SDS011;6708;49.814;8.652;2022-08-21T17:32:29;1.40;;;1.23;;
13279;SDS011;6708;49.814;8.652;2022-08-21T17:35:08;1.20;;;1.20;;
13279;SDS011;6708;49.814;8.652;2022-08-21T17:37:54;1.50;;;1.40;;
13279;SDS011;6708;49.814;8.652;2022-08-21T17:41:07;2.37;;;1.77;;
13279;SDS011;6708;49.814;8.652;2022-08-21T17:44:19;1.37;;;1.30;;
13279;SDS011;6708;49.814;8.652;2022-08-21T17:47:08;4.90;;;1.63;;
13279;SDS011;6708;49.814;8.652;2022-08-21T17:49:50;2.03;;;1.17;;
13279;SDS011;6708;49.814;8.652;2022-08-21T17:52:35;4.93;;;1.20;;
13279;SDS011;6708;49.814;8.652;2022-08-21T17:55:29;1.45;;;1.45;;
13279;SDS011;6708;49.814;8.652;2022-08-21T17:58:23;1.27;;;1.25;;
13279;SDS011;6708;49.814;8.652;2022-08-21T18:01:10;1.13;;;1.02;;
13279;SDS011;6708;49.814;8.652;2022-08-21T18:03:47;1.10;;;1.10;;
13279;SDS011;6708;49.814;8.652;2022-08-21T18:06:45;4.72;;;1.33;;
13279;SDS011;6708;49.814;8.652;2022-08-21T18:09:36;1.38;;;1.27;;
13279;SDS011;6708;49.814;8.652;2022-08-21T18:12:38;1.75;;;0.77;;
13279;SDS011;6708;49.814;8.652;2022-08-21T18:15:56;2.10;;;1.55;;
13279;SDS011;6708;49.814;8.652;2022-08-21T18:22:13;1.52;;;1.27;;
13279;SDS011;6708;49.814;8.652;2022-08-21T18:25:23;1.23;;;1.17;;
13279;SDS011;6708;49.814;8.652;2022-08-21T18:28:10;1.93;;;1.37;;
13279;SDS011;6708;49.814;8.652;2022-08-21T18:34:27;2.70;;;1.20;;
13279;SDS011;6708;49.814;8.652;2022-08-21T18:37:08;1.40;;;1.30;;
13279;SDS011;6708;49.814;8.652;2022-08-21T18:40:56;1.10;;;1.10;;
13279;SDS011;6708;49.814;8.652;2022-08-21T18:43:04;1.27;;;1.17;;
13279;SDS011;6708;49.814;8.652;2022-08-21T18:46:29;1.30;;;1.13;;
13279;SDS011;6708;49.814;8.652;2022-08-21T18:49:28;1.23;;;1.13;;
13279;SDS011;6708;49.814;8.652;2022-08-21T18:52:34;1.90;;;1.23;;
13279;SDS011;6708;49.814;8.652;2022-08-21T18:55:17;2.03;;;1.23;;
13279;SDS011;6708;49.814;8.652;2022-08-21T18:58:04;1.20;;;1.10;;
13279;SDS011;6708;49.814;8.652;2022-08-21T19:00:47;2.30;;;1.40;;
13279;SDS011;6708;49.814;8.652;2022-08-21T19:06:23;1.70;;;1.30;;
13279;SDS011;6708;49.814;8.652;2022-08-21T19:09:24;1.43;;;1.37;;
13279;SDS011;6708;49.814;8.652;2022-08-21T19:15:20;1.77;;;1.10;;
13279;SDS011;6708;49.814;8.652;2022-08-21T19:18:04;4.07;;;1.43;;
13279;SDS011;6708;49.814;8.652;2022-08-21T19:23:45;1.37;;;1.30;;
13279;SDS011;6708;49.814;8.652;2022-08-21T19:26:24;1.53;;;1.17;;
13279;SDS011;6708;49.814;8.652;2022-08-21T19:29:22;4.00;;;1.33;;
13279;SDS011;6708;49.814;8.652;2022-08-21T19:32:30;0.93;;;0.93;;
13279;SDS011;6708;49.814;8.652;2022-08-21T19:35:27;1.03;;;1.03;;
13279;SDS011;6708;49.814;8.652;2022-08-21T19:41:30;1.40;;;1.30;;
13279;SDS011;6708;49.814;8.652;2022-08-21T19:44:48;1.40;;;1.30;;
13279;SDS011;6708;49.814;8.652;2022-08-21T19:47:37;1.43;;;1.43;;
13279;SDS011;6708;49.814;8.652;2022-08-21T19:50:29;1.40;;;1.20;;
13279;SDS011;6708;49.814;8.652;2022-08-21T19:53:23;2.33;;;1.07;;
13279;SDS011;6708;49.814;8.652;2022-08-21T19:56:05;1.13;;;1.03;;
13279;SDS011;6708;49.814;8.652;2022-08-21T19:59:09;1.80;;;1.70;;
13279;SDS011;6708;49.814;8.652;2022-08-21T20:01:47;1.43;;;1.23;;
13279;SDS011;6708;49.814;8.652;2022-08-21T20:04:45;1.37;;;1.10;;
13279;SDS011;6708;49.814;8.652;2022-08-21T20:07:43;3.30;;;1.70;;
13279;SDS011;6708;49.814;8.652;2022-08-21T20:13:52;1.10;;;1.10;;
13279;SDS011;6708;49.814;8.652;2022-08-21T20:16:44;1.20;;;1.20;;
13279;SDS011;6708;49.814;8.652;2022-08-21T20:19:46;3.77;;;1.30;;
13279;SDS011;6708;49.814;8.652;2022-08-21T20:22:41;1.63;;;1.27;;
13279;SDS011;6708;49.814;8.652;2022-08-21T20:25:47;3.73;;;1.57;;
13279;SDS011;6708;49.814;8.652;2022-08-21T20:28:33;1.63;;;1.53;;
13279;SDS011;6708;49.814;8.652;2022-08-21T20:34:34;1.30;;;1.30;;
13279;SDS011;6708;49.814;8.652;2022-08-21T20:37:23;1.47;;;1.47;;
13279;SDS011;6708;49.814;8.652;2022-08-21T20:40:18;1.50;;;1.40;;
13279;SDS011;6708;49.814;8.652;2022-08-21T20:43:05;1.50;;;1.30;;
13279;SDS011;6708;49.814;8.652;2022-08-21T20:46:08;1.33;;;1.33;;
13279;SDS011;6708;49.814;8.652;2022-08-21T20:49:16;0.93;;;0.93;;
13279;SDS011;6708;49.814;8.652;2022-08-21T20:52:19;3.90;;;1.60;;
13279;SDS011;6708;49.814;8.652;2022-08-21T20:55:32;1.37;;;1.37;;
13279;SDS011;6708;49.814;8.652;2022-08-21T20:58:19;2.83;;;1.17;;
13279;SDS011;6708;49.814;8.652;2022-08-21T21:00:56;0.90;;;0.90;;
13279;SDS011;6708;49.814;8.652;2022-08-21T21:03:28;1.30;;;1.20;;
13279;SDS011;6708;49.814;8.652;2022-08-21T21:06:03;1.23;;;1.13;;
13279;SDS011;6708;49.814;8.652;2022-08-21T21:08:36;1.60;;;1.50;;
13279;SDS011;6708;49.814;8.652;2022-08-21T21:11:10;2.30;;;1.60;;